createdAt,value
2019-06-08T00:02:04.072Z,100430.00
2019-06-08T00:04:37.348Z,100427.53
2019-06-08T00:07:13.073Z,100430.81
2019-06-08T00:09:45.743Z,100426.72
2019-06-08T00:12:19.061Z,100423.00
2019-06-08T00:14:52.347Z,100423.63
2019-06-08T00:17:37.661Z,100426.09
2019-06-08T00:20:00.576Z,100423.44
2019-06-08T00:22:33.739Z,100418.50
2019-06-08T00:25:07.074Z,100416.28
2019-06-08T00:27:40.409Z,100419.56
2019-06-08T00:30:13.750Z,100427.37
2019-06-08T00:32:47.101Z,100422.65
2019-06-08T00:35:20.809Z,100420.19
2019-06-08T00:37:53.874Z,100417.13
2019-06-08T00:40:27.173Z,100412.41
2019-06-08T00:43:00.493Z,100414.03
2019-06-08T00:45:33.748Z,100412.41
2019-06-08T00:48:07.090Z,100422.23
2019-06-08T00:50:40.405Z,100424.11
2019-06-08T00:53:14.790Z,100421.66
2019-06-08T00:55:48.058Z,100424.72
2019-06-08T00:58:22.000Z,100429.23
2019-06-08T01:00:54.811Z,100419.80
2019-06-08T01:03:28.215Z,100423.87
2019-06-08T01:06:01.547Z,100426.35
2019-06-08T01:08:34.878Z,100430.22
2019-06-08T01:11:08.134Z,100426.54
2019-06-08T01:13:41.636Z,100423.87
2019-06-08T01:16:14.940Z,100425.74
2019-06-08T01:18:48.447Z,100426.75
2019-06-08T01:21:21.821Z,100423.66
2019-06-08T01:23:55.158Z,100421.81
2019-06-08T01:26:28.424Z,100425.51
2019-06-08T01:29:01.753Z,100424.91
2019-06-08T01:31:35.020Z,100431.26
2019-06-08T01:34:08.342Z,100432.91
2019-06-08T01:36:41.613Z,100430.41
2019-06-08T01:39:15.050Z,100429.58
2019-06-08T01:41:48.203Z,100428.78
2019-06-08T01:44:21.601Z,100433.67
2019-06-08T01:46:54.763Z,100436.55
2019-06-08T01:49:28.404Z,100441.08
2019-06-08T01:52:01.391Z,100445.16
2019-06-08T01:54:34.733Z,100450.08
2019-06-08T01:57:07.983Z,100452.95
2019-06-08T01:59:41.303Z,100452.93
2019-06-08T02:02:14.549Z,100444.11
2019-06-08T02:04:49.054Z,100447.80
2019-06-08T02:07:22.182Z,100448.81
2019-06-08T02:09:55.510Z,100455.98
2019-06-08T02:12:28.962Z,100449.42
2019-06-08T02:15:02.296Z,100451.70
2019-06-08T02:17:36.188Z,100456.61
2019-06-08T02:20:09.935Z,100456.01
2019-06-08T02:22:43.269Z,100452.33
2019-06-08T02:25:17.169Z,100451.34
2019-06-08T02:27:50.475Z,100462.84
2019-06-08T02:30:24.007Z,100455.25
2019-06-08T02:32:59.386Z,100455.24
2019-06-08T02:35:35.178Z,100457.31
2019-06-08T02:38:08.073Z,100455.88
2019-06-08T02:40:41.492Z,100458.16
2019-06-08T02:43:14.948Z,100457.95
2019-06-08T02:45:48.287Z,100460.20
2019-06-08T02:48:21.554Z,100464.94
2019-06-08T02:50:56.690Z,100459.77
2019-06-08T02:53:31.556Z,100469.20
2019-06-08T02:56:03.664Z,100471.24
2019-06-08T02:58:39.081Z,100468.97
2019-06-08T03:01:11.240Z,100470.40
2019-06-08T03:03:44.572Z,100464.55
2019-06-08T03:06:17.850Z,100460.75
2019-06-08T03:08:51.358Z,100472.38
2019-06-08T03:11:24.712Z,100458.09
2019-06-08T03:14:00.686Z,100462.25
2019-06-08T03:16:35.878Z,100462.70
2019-06-08T03:19:21.165Z,100467.09
2019-06-08T03:21:42.629Z,100453.12
2019-06-08T03:24:15.310Z,100456.12
2019-06-08T03:26:48.593Z,100461.95
2019-06-08T03:29:21.646Z,100462.12
2019-06-08T03:31:56.891Z,100458.05
2019-06-08T03:34:29.300Z,100461.52
2019-06-08T03:37:02.589Z,100463.05
2019-06-08T03:39:37.000Z,100468.05
2019-06-08T03:42:10.254Z,100463.38
2019-06-08T03:44:44.960Z,100460.17
2019-06-08T03:47:18.121Z,100464.99
2019-06-08T03:49:56.997Z,100467.89
2019-06-08T03:52:25.729Z,100466.73
2019-06-08T03:54:59.036Z,100468.38
2019-06-08T03:57:32.452Z,100469.28
2019-06-08T04:00:13.344Z,100469.58
2019-06-08T04:02:44.857Z,100460.70
2019-06-08T04:05:18.228Z,100463.61
2019-06-08T04:07:51.549Z,100462.10
2019-06-08T04:10:24.815Z,100474.66
2019-06-08T04:12:58.144Z,100468.39
2019-06-08T04:15:31.405Z,100473.61
2019-06-08T04:18:04.903Z,100476.91
2019-06-08T04:20:40.071Z,100476.87
2019-06-08T04:23:12.945Z,100480.67
2019-06-08T04:25:47.746Z,100469.28
2019-06-08T04:28:20.450Z,100475.60
2019-06-08T04:30:53.102Z,100471.91
2019-06-08T04:33:25.782Z,100477.22
2019-06-08T04:35:58.397Z,100474.44
2019-06-08T04:38:31.038Z,100471.96
2019-06-08T04:41:03.660Z,100477.05
2019-06-08T04:43:38.493Z,100476.81
2019-06-08T04:46:11.566Z,100479.35
2019-06-08T04:48:45.800Z,100486.58
2019-06-08T04:51:19.214Z,100485.61
2019-06-08T04:53:52.526Z,100491.15
2019-06-08T04:56:26.648Z,100490.66
2019-06-08T04:58:59.284Z,100496.31
2019-06-08T05:01:31.906Z,100494.22
2019-06-08T05:04:05.356Z,100478.97
2019-06-08T05:06:39.052Z,100478.97
2019-06-08T05:09:11.878Z,100490.64
2019-06-08T05:11:45.290Z,100497.78
2019-06-08T05:14:18.226Z,100494.02
2019-06-08T05:16:51.502Z,100486.84
2019-06-08T05:19:24.144Z,100497.70
2019-06-08T05:21:56.763Z,100491.27
2019-06-08T05:24:29.431Z,100492.25
2019-06-08T05:27:02.094Z,100499.53
2019-06-08T05:29:35.521Z,100503.61
2019-06-08T05:32:08.817Z,100504.30
2019-06-08T05:34:43.365Z,100498.78
2019-06-08T05:37:16.651Z,100501.22
2019-06-08T05:39:49.954Z,100500.05
2019-06-08T05:42:23.244Z,100497.02
2019-06-08T05:44:56.250Z,100492.27
2019-06-08T05:47:30.046Z,100493.42
2019-06-08T05:50:02.683Z,100499.41
2019-06-08T05:52:35.315Z,100499.74
2019-06-08T05:55:08.555Z,100499.41
2019-06-08T05:57:42.083Z,100497.95
2019-06-08T06:00:15.113Z,100500.25
2019-06-08T06:02:48.930Z,100500.25
2019-06-08T06:05:21.834Z,100500.72
2019-06-08T06:07:54.440Z,100503.96
2019-06-08T06:10:27.155Z,100503.83
2019-06-08T06:13:00.018Z,100503.16
2019-06-08T06:15:33.331Z,100506.70
2019-06-08T06:18:06.616Z,100515.28
2019-06-08T06:20:39.454Z,100520.47
2019-06-08T06:23:12.568Z,100519.25
2019-06-08T06:25:47.437Z,100511.01
2019-06-08T06:28:20.242Z,100524.63
2019-06-08T06:30:52.915Z,100511.16
2019-06-08T06:33:25.605Z,100508.80
2019-06-08T06:35:58.306Z,100510.82
2019-06-08T06:38:30.918Z,100511.61
2019-06-08T06:41:03.565Z,100505.95
2019-06-08T06:43:36.162Z,100514.75
2019-06-08T06:46:08.811Z,100509.33
2019-06-08T06:48:42.061Z,100507.70
2019-06-08T06:51:25.850Z,100506.47
2019-06-08T06:53:49.248Z,100515.00
2019-06-08T06:56:21.912Z,100498.17
2019-06-08T06:58:55.087Z,100503.69
2019-06-08T07:01:27.729Z,100499.80
2019-06-08T07:04:00.710Z,100498.84
2019-06-08T07:06:33.393Z,100496.86
2019-06-08T07:09:07.240Z,100493.94
2019-06-08T07:11:40.509Z,100491.13
2019-06-08T07:14:13.771Z,100496.05
2019-06-08T07:16:47.767Z,100490.06
2019-06-08T07:19:20.636Z,100489.48
2019-06-08T07:21:54.751Z,100486.22
2019-06-08T07:24:27.466Z,100485.95
2019-06-08T07:27:00.114Z,100488.81
2019-06-08T07:29:32.796Z,100487.63
2019-06-08T07:32:05.809Z,100481.72
2019-06-08T07:34:41.082Z,100479.16
2019-06-08T07:37:12.757Z,100493.02
2019-06-08T07:39:45.381Z,100486.84
2019-06-08T07:42:18.015Z,100481.20
2019-06-08T07:44:51.281Z,100477.84
2019-06-08T07:47:24.605Z,100477.19
2019-06-08T07:49:59.570Z,100481.90
2019-06-08T07:52:33.562Z,100480.27
2019-06-08T07:55:07.406Z,100477.94
2019-06-08T07:57:40.150Z,100485.75
2019-06-08T08:00:12.773Z,100484.31
2019-06-08T08:02:45.809Z,100487.56
2019-06-08T08:05:18.527Z,100485.92
2019-06-08T08:07:52.558Z,100489.17
2019-06-08T08:10:25.528Z,100482.20
2019-06-08T08:12:58.959Z,100485.12
2019-06-08T08:15:31.812Z,100487.17
2019-06-08T08:18:04.467Z,100495.02
2019-06-08T08:20:37.097Z,100489.80
2019-06-08T08:23:09.716Z,100492.64
2019-06-08T08:25:42.333Z,100484.66
2019-06-08T08:28:15.036Z,100504.38
2019-06-08T08:30:49.323Z,100498.27
2019-06-08T08:33:22.080Z,100491.25
2019-06-08T08:35:55.562Z,100494.48
2019-06-08T08:38:28.405Z,100490.02
2019-06-08T08:41:07.146Z,100471.15
2019-06-08T08:43:37.574Z,100465.91
2019-06-08T08:46:09.821Z,100482.48
2019-06-08T08:48:43.727Z,100489.38
2019-06-08T08:51:17.963Z,100493.33
2019-06-08T08:53:53.857Z,100470.91
2019-06-08T08:56:25.150Z,100489.44
2019-06-08T08:59:00.964Z,100496.39
2019-06-08T09:01:32.153Z,100496.39
2019-06-08T09:04:05.308Z,100505.13
2019-06-08T09:06:38.248Z,100504.98
2019-06-08T09:09:10.985Z,100503.50
2019-06-08T09:11:43.632Z,100515.25
2019-06-08T09:14:18.414Z,100508.75
2019-06-08T09:16:52.641Z,100507.57
2019-06-08T09:19:27.924Z,100509.99
2019-06-08T09:22:02.307Z,100509.68
2019-06-08T09:24:34.378Z,100506.30
2019-06-08T09:27:08.045Z,100500.75
2019-06-08T09:29:41.141Z,100494.22
2019-06-08T09:32:13.826Z,100498.11
2019-06-08T09:34:48.321Z,100500.18
2019-06-08T09:37:20.817Z,100505.16
2019-06-08T09:39:53.959Z,100500.91
2019-06-08T09:42:28.491Z,100499.80
2019-06-08T09:45:05.087Z,100497.92
2019-06-08T09:47:37.963Z,100515.99
2019-06-08T09:50:12.286Z,100509.76
2019-06-08T09:52:47.720Z,100499.19
2019-06-08T09:55:19.583Z,100501.18
2019-06-08T09:57:54.530Z,100501.25
2019-06-08T10:00:29.243Z,100504.22
2019-06-08T10:03:04.384Z,100489.86
2019-06-08T10:05:38.690Z,100498.03
2019-06-08T10:08:11.312Z,100489.81
2019-06-08T10:10:45.185Z,100480.09
2019-06-08T10:13:19.037Z,100479.23
2019-06-08T10:15:52.010Z,100484.05
2019-06-08T10:18:25.384Z,100474.98
2019-06-08T10:21:01.230Z,100475.28
2019-06-08T10:23:34.681Z,100471.78
2019-06-08T10:26:07.755Z,100475.15
2019-06-08T10:28:41.002Z,100475.34
2019-06-08T10:31:14.379Z,100465.52
2019-06-08T10:33:48.178Z,100471.78
2019-06-08T10:36:21.094Z,100465.43
2019-06-08T10:38:55.968Z,100454.72
2019-06-08T10:41:28.728Z,100462.58
2019-06-08T10:44:03.362Z,100455.42
2019-06-08T10:46:40.325Z,100451.36
2019-06-08T10:49:14.204Z,100457.63
2019-06-08T10:51:45.096Z,100450.41
2019-06-08T10:54:18.371Z,100443.33
2019-06-08T10:56:52.941Z,100450.76
2019-06-08T10:59:28.791Z,100441.39
2019-06-08T11:02:03.497Z,100442.05
2019-06-08T11:04:38.644Z,100456.36
2019-06-08T11:07:15.455Z,100446.64
2019-06-08T11:09:45.274Z,100439.48
2019-06-08T11:12:18.529Z,100440.78
2019-06-08T11:14:51.891Z,100437.73
2019-06-08T11:17:27.774Z,100436.23
2019-06-08T11:20:02.251Z,100428.67
2019-06-08T11:22:34.677Z,100433.03
2019-06-08T11:25:14.972Z,100431.17
2019-06-08T11:27:42.530Z,100437.27
2019-06-08T11:30:23.512Z,100427.36
2019-06-08T11:32:50.126Z,100427.80
2019-06-08T11:35:23.475Z,100429.66
2019-06-08T11:37:58.485Z,100438.89
2019-06-08T11:40:31.814Z,100430.17
2019-06-08T11:43:06.399Z,100434.02
2019-06-08T11:45:39.215Z,100429.64
2019-06-08T11:48:12.552Z,100429.60
2019-06-08T11:50:48.891Z,100432.11
2019-06-08T11:53:21.173Z,100422.34
2019-06-08T11:55:55.020Z,100414.03
2019-06-08T11:58:30.763Z,100417.98
2019-06-08T12:01:11.659Z,100406.27
2019-06-08T12:03:42.786Z,100403.52
2019-06-08T12:06:18.603Z,100400.91
2019-06-08T12:08:50.567Z,100407.36
2019-06-08T12:11:23.884Z,100392.00
2019-06-08T12:13:58.487Z,100395.50
2019-06-08T12:16:32.335Z,100407.65
2019-06-08T12:19:06.821Z,100387.23
2019-06-08T12:21:40.708Z,100385.95
2019-06-08T12:24:14.453Z,100370.83
2019-06-08T12:26:48.401Z,100376.23
2019-06-08T12:29:22.067Z,100361.34
2019-06-08T12:31:55.210Z,100352.36
2019-06-08T12:34:28.548Z,100350.48
2019-06-08T12:37:02.010Z,100349.09
2019-06-08T12:39:35.343Z,100364.20
2019-06-08T12:42:14.680Z,100351.61
2019-06-08T12:44:43.768Z,100356.22
2019-06-08T12:47:20.861Z,100364.20
2019-06-08T12:49:51.067Z,100362.63
2019-06-08T12:52:24.346Z,100356.81
2019-06-08T12:55:06.045Z,100365.66
2019-06-08T12:57:32.227Z,100381.52
2019-06-08T13:00:09.903Z,100381.55
2019-06-08T13:02:43.927Z,100380.31
2019-06-08T13:05:21.200Z,100384.83
2019-06-08T13:07:52.122Z,100383.99
2019-06-08T13:10:27.619Z,100382.87
2019-06-08T13:12:59.726Z,100382.53
2019-06-08T13:15:33.062Z,100408.39
2019-06-08T13:18:08.513Z,100394.30
2019-06-08T13:20:40.752Z,100385.84
2019-06-08T13:23:14.980Z,100391.17
2019-06-08T13:25:48.324Z,100396.49
2019-06-08T13:28:25.002Z,100390.67
2019-06-08T13:30:58.140Z,100396.19
2019-06-08T13:33:30.719Z,100397.97
2019-06-08T13:36:04.229Z,100391.73
2019-06-08T13:38:38.632Z,100386.91
2019-06-08T13:41:12.930Z,100388.94
2019-06-08T13:43:47.808Z,100396.59
2019-06-08T13:46:23.313Z,100387.41
2019-06-08T13:48:55.462Z,100385.11
2019-06-08T13:51:29.265Z,100381.59
2019-06-08T13:54:02.383Z,100382.36
2019-06-08T13:56:38.465Z,100384.58
2019-06-08T13:59:10.070Z,100384.23
2019-06-08T14:01:43.230Z,100382.25
2019-06-08T14:04:18.971Z,100380.25
2019-06-08T14:06:50.843Z,100384.38
2019-06-08T14:09:24.992Z,100383.16
2019-06-08T14:11:58.099Z,100381.34
2019-06-08T14:14:33.619Z,100380.11
2019-06-08T14:17:08.342Z,100373.01
2019-06-08T14:19:40.053Z,100372.71
2019-06-08T14:22:13.369Z,100383.78
2019-06-08T14:24:47.859Z,100391.31
2019-06-08T14:27:21.413Z,100389.34
2019-06-08T14:29:54.575Z,100399.66
2019-06-08T14:32:28.230Z,100399.66
2019-06-08T14:35:02.943Z,100396.48
2019-06-08T14:37:35.405Z,100398.44
2019-06-08T14:40:08.650Z,100393.69
2019-06-08T14:42:42.444Z,100401.06
2019-06-08T14:45:18.142Z,100407.23
2019-06-08T14:47:51.643Z,100409.67
2019-06-08T14:50:24.900Z,100410.48
2019-06-08T14:52:59.083Z,100407.42
2019-06-08T14:55:34.186Z,100405.33
2019-06-08T14:58:08.320Z,100410.67
2019-06-08T15:00:41.180Z,100413.29
2019-06-08T15:03:14.905Z,100409.09
2019-06-08T15:05:49.880Z,100404.22
2019-06-08T15:08:23.628Z,100407.93
2019-06-08T15:10:58.202Z,100396.31
2019-06-08T15:13:31.294Z,100393.59
2019-06-08T15:16:04.464Z,100389.08
2019-06-08T15:18:38.536Z,100391.17
2019-06-08T15:21:11.773Z,100385.12
2019-06-08T15:23:47.199Z,100391.41
2019-06-08T15:26:27.088Z,100391.05
2019-06-08T15:28:54.387Z,100394.47
2019-06-08T15:31:30.069Z,100396.21
2019-06-08T15:34:02.927Z,100397.38
2019-06-08T15:36:38.043Z,100399.47
2019-06-08T15:39:10.273Z,100397.83
2019-06-08T15:41:43.607Z,100399.83
2019-06-08T15:44:21.157Z,100403.98
2019-06-08T15:46:51.236Z,100407.70
2019-06-08T15:49:24.549Z,100414.50
2019-06-08T15:51:58.005Z,100411.44
2019-06-08T15:54:36.198Z,100411.73
2019-06-08T15:57:05.792Z,100418.73
2019-06-08T15:59:41.815Z,100417.02
2019-06-08T16:02:13.471Z,100417.38
2019-06-08T16:04:46.910Z,100414.05
2019-06-08T16:07:20.184Z,100417.27
2019-06-08T16:09:53.576Z,100417.67
2019-06-08T16:12:26.839Z,100412.42
2019-06-08T16:15:00.168Z,100412.98
2019-06-08T16:17:33.638Z,100423.29
2019-06-08T16:20:07.131Z,100423.48
2019-06-08T16:22:40.417Z,100428.35
2019-06-08T16:25:13.746Z,100435.14
2019-06-08T16:27:47.009Z,100430.34
2019-06-08T16:30:20.345Z,100430.71
2019-06-08T16:32:53.620Z,100427.72
2019-06-08T16:35:28.105Z,100427.83
2019-06-08T16:38:01.390Z,100425.17
2019-06-08T16:40:36.253Z,100430.13
2019-06-08T16:43:09.352Z,100430.33
2019-06-08T16:45:42.692Z,100440.70
2019-06-08T16:48:15.940Z,100430.47
2019-06-08T16:50:48.961Z,100432.92
2019-06-08T16:53:22.216Z,100430.84
2019-06-08T16:55:55.569Z,100434.64
2019-06-08T16:58:29.937Z,100435.66
2019-06-08T17:01:03.137Z,100441.88
2019-06-08T17:03:36.926Z,100438.08
2019-06-08T17:06:10.442Z,100439.63
2019-06-08T17:08:43.628Z,100438.74
2019-06-08T17:11:16.989Z,100439.38
2019-06-08T17:13:51.876Z,100436.93
2019-06-08T17:16:25.181Z,100439.25
2019-06-08T17:18:58.449Z,100438.45
2019-06-08T17:21:32.194Z,100439.25
2019-06-08T17:24:05.440Z,100443.80
2019-06-08T17:26:39.113Z,100445.69
2019-06-08T17:29:11.936Z,100450.30
2019-06-08T17:31:45.271Z,100452.08
2019-06-08T17:34:20.535Z,100448.65
2019-06-08T17:36:52.870Z,100453.42
2019-06-08T17:39:29.321Z,100457.30
2019-06-08T17:42:01.061Z,100456.82
2019-06-08T17:44:34.912Z,100461.66
2019-06-08T17:47:08.483Z,100463.23
2019-06-08T17:49:43.267Z,100466.45
2019-06-08T17:52:17.019Z,100467.79
2019-06-08T17:54:50.331Z,100471.61
2019-06-08T17:57:23.666Z,100467.80
2019-06-08T17:59:57.680Z,100466.23
2019-06-08T18:02:31.917Z,100465.92
2019-06-08T18:05:07.045Z,100461.47
2019-06-08T18:07:41.966Z,100465.11
2019-06-08T18:10:14.241Z,100464.16
2019-06-08T18:12:49.286Z,100465.69
2019-06-08T18:15:22.369Z,100457.70
2019-06-08T18:17:57.688Z,100459.84
2019-06-08T18:20:30.430Z,100456.84
2019-06-08T18:23:03.675Z,100450.09
2019-06-08T18:25:38.717Z,100454.45
2019-06-08T18:28:13.588Z,100448.76
2019-06-08T18:30:49.013Z,100451.33
2019-06-08T18:33:20.193Z,100449.93
2019-06-08T18:35:53.490Z,100451.45
2019-06-08T18:38:27.396Z,100448.11
2019-06-08T18:41:00.698Z,100450.19
2019-06-08T18:43:34.934Z,100450.63
2019-06-08T18:46:07.722Z,100444.54
2019-06-08T18:48:42.141Z,100450.92
2019-06-08T18:51:17.472Z,100452.88
2019-06-08T18:54:07.242Z,100449.91
2019-06-08T18:56:24.600Z,100453.48
2019-06-08T18:58:59.156Z,100461.59
2019-06-08T19:01:32.283Z,100476.90
2019-06-08T19:04:07.687Z,100491.16
2019-06-08T19:06:41.201Z,100493.42
2019-06-08T19:09:17.037Z,100488.28
2019-06-08T19:11:50.176Z,100501.32
2019-06-08T19:14:23.182Z,100497.48
2019-06-08T19:16:58.126Z,100498.72
2019-06-08T19:19:31.728Z,100500.05
2019-06-08T19:22:04.734Z,100502.30
2019-06-08T19:24:41.342Z,100501.91
2019-06-08T19:27:12.773Z,100515.12
2019-06-08T19:29:49.172Z,100517.27
2019-06-08T19:32:20.629Z,100525.13
2019-06-08T19:34:54.947Z,100519.39
2019-06-08T19:37:32.055Z,100524.39
2019-06-08T19:40:02.977Z,100524.08
2019-06-08T19:42:44.749Z,100516.08
2019-06-08T19:45:10.497Z,100521.26
2019-06-08T19:47:43.111Z,100517.98
2019-06-08T19:50:17.233Z,100517.42
2019-06-08T19:52:53.294Z,100513.76
2019-06-08T19:55:25.035Z,100508.02
2019-06-08T19:57:58.804Z,100505.55
2019-06-08T20:00:32.128Z,100507.00
2019-06-08T20:03:07.694Z,100506.01
2019-06-08T20:05:41.303Z,100501.30
2019-06-08T20:08:14.554Z,100511.42
2019-06-08T20:10:49.236Z,100514.80
2019-06-08T20:13:22.469Z,100516.45
2019-06-08T20:15:59.578Z,100527.18
2019-06-08T20:18:31.056Z,100525.98
2019-06-08T20:21:04.461Z,100519.61
2019-06-08T20:23:38.208Z,100517.98
2019-06-08T20:26:11.595Z,100523.12
2019-06-08T20:28:44.891Z,100537.76
2019-06-08T20:31:18.232Z,100530.78
2019-06-08T20:33:52.198Z,100533.45
2019-06-08T20:36:25.305Z,100541.98
2019-06-08T20:38:58.598Z,100541.44
2019-06-08T20:41:31.917Z,100544.35
2019-06-08T20:44:05.185Z,100542.09
2019-06-08T20:46:38.625Z,100544.80
2019-06-08T20:49:11.879Z,100541.95
2019-06-08T20:51:45.191Z,100538.84
2019-06-08T20:54:18.462Z,100536.83
2019-06-08T20:56:52.378Z,100532.34
2019-06-08T20:59:32.987Z,100538.11
2019-06-08T21:02:01.247Z,100538.74
2019-06-08T21:04:34.507Z,100535.23
2019-06-08T21:07:08.266Z,100545.87
2019-06-08T21:09:41.462Z,100545.09
2019-06-08T21:12:14.852Z,100551.06
2019-06-08T21:14:50.785Z,100544.91
2019-06-08T21:17:23.168Z,100539.97
2019-06-08T21:19:57.932Z,100542.47
2019-06-08T21:22:30.852Z,100541.65
2019-06-08T21:25:08.635Z,100546.21
2019-06-08T21:27:41.615Z,100545.58
2019-06-08T21:30:21.668Z,100548.88
2019-06-08T21:32:52.949Z,100547.67
2019-06-08T21:35:24.127Z,100556.73
2019-06-08T21:38:01.051Z,100552.65
2019-06-08T21:40:31.886Z,100551.84
2019-06-08T21:43:05.037Z,100551.63
2019-06-08T21:45:38.528Z,100560.92
2019-06-08T21:48:12.040Z,100558.27
2019-06-08T21:50:49.021Z,100555.24
2019-06-08T21:53:20.169Z,100555.69
2019-06-08T21:55:54.215Z,100557.38
2019-06-08T21:58:28.162Z,100552.88
2019-06-08T22:01:01.708Z,100551.84
2019-06-08T22:03:34.578Z,100556.41
2019-06-08T22:06:08.145Z,100558.23
2019-06-08T22:08:41.574Z,100566.88
2019-06-08T22:11:14.834Z,100568.98
2019-06-08T22:13:48.178Z,100565.12
2019-06-08T22:16:21.471Z,100566.55
2019-06-08T22:18:54.923Z,100575.61
2019-06-08T22:21:28.203Z,100581.59
2019-06-08T22:24:01.106Z,100583.85
2019-06-08T22:26:34.390Z,100583.85
2019-06-08T22:29:08.023Z,100587.14
2019-06-08T22:31:40.965Z,100589.39
2019-06-08T22:34:14.169Z,100588.98
2019-06-08T22:36:47.851Z,100583.22
2019-06-08T22:39:20.689Z,100582.81
2019-06-08T22:41:53.967Z,100583.44
2019-06-08T22:44:28.437Z,100581.59
2019-06-08T22:47:01.986Z,100583.63
2019-06-08T22:49:38.226Z,100576.02
2019-06-08T22:52:09.905Z,100580.56
2019-06-08T22:54:43.053Z,100582.00
2019-06-08T22:57:18.294Z,100587.13
2019-06-08T22:59:50.930Z,100592.25
2019-06-08T23:02:24.100Z,100587.31
2019-06-08T23:05:01.335Z,100592.66
2019-06-08T23:07:32.911Z,100589.60
2019-06-08T23:10:08.906Z,100600.08
2019-06-08T23:12:41.828Z,100591.45
2019-06-08T23:15:15.130Z,100589.39
2019-06-08T23:17:48.383Z,100587.38
2019-06-08T23:20:21.707Z,100588.82
2019-06-08T23:22:55.585Z,100587.59
2019-06-08T23:25:29.306Z,100587.79
2019-06-08T23:28:03.292Z,100589.45
2019-06-08T23:30:38.226Z,100588.02
2019-06-08T23:33:11.823Z,100584.56
2019-06-08T23:36:27.387Z,100585.59
2019-06-08T23:38:20.177Z,100584.97
2019-06-08T23:40:53.510Z,100586.41
2019-06-08T23:43:28.149Z,100592.39
2019-06-08T23:46:02.426Z,100593.24
2019-06-08T23:48:37.470Z,100595.31
2019-06-08T23:51:11.017Z,100601.48
2019-06-08T23:53:47.600Z,100595.91
2019-06-08T23:56:19.471Z,100595.51
2019-06-08T23:58:52.583Z,100597.17
